createdAt,value
2019-02-22T00:09:01.068Z,73.42
2019-02-22T00:11:34.995Z,72.12
2019-02-22T00:14:04.515Z,69.72
2019-02-22T00:16:34.259Z,70.14
2019-02-22T00:19:04.551Z,70.51
2019-02-22T00:21:35.981Z,70.24
2019-02-22T00:24:05.371Z,70.37
2019-02-22T00:32:32.229Z,75.74
2019-02-22T00:35:04.971Z,76.04
2019-02-22T00:37:34.898Z,69.16
2019-02-22T00:40:29.540Z,70.48
2019-02-22T00:43:01.422Z,70.91
2019-02-22T00:51:37.791Z,73.76
2019-02-22T00:54:09.191Z,71.80
2019-02-22T00:56:48.334Z,70.89
2019-02-22T00:59:19.582Z,69.96
2019-02-22T01:04:53.869Z,72.75
2019-02-22T01:07:24.330Z,75.20
2019-02-22T01:09:55.750Z,71.68
2019-02-22T01:12:24.524Z,70.63
2019-02-22T01:14:54.200Z,72.20
2019-02-22T01:17:23.731Z,72.34
2019-02-22T01:19:57.379Z,70.04
2019-02-22T01:25:43.187Z,69.85
2019-02-22T01:28:12.642Z,71.78
2019-02-22T01:30:45.042Z,69.49
2019-02-22T01:33:25.752Z,69.27
2019-02-22T01:35:55.123Z,68.92
2019-02-22T01:38:29.135Z,74.65
2019-02-22T01:41:00.116Z,70.37
2019-02-22T01:43:39.187Z,72.05
2019-02-22T01:49:13.615Z,70.06
2019-02-22T01:51:47.694Z,71.71
2019-02-22T01:54:22.584Z,71.43
2019-02-22T01:56:53.794Z,73.54
2019-02-22T01:59:28.586Z,75.81
2019-02-22T02:01:58.267Z,77.66
2019-02-22T02:04:29.072Z,77.21
2019-02-22T02:10:11.631Z,79.36
2019-02-22T02:13:03.448Z,76.17
2019-02-22T02:15:37.639Z,79.57
2019-02-22T02:18:09.256Z,75.96
2019-02-22T02:20:40.329Z,76.50
2019-02-22T02:23:10.708Z,79.67
2019-02-22T02:26:01.811Z,80.28
2019-02-22T02:28:34.782Z,80.19
2019-02-22T02:31:16.561Z,80.80
2019-02-22T02:36:50.067Z,80.62
2019-02-22T02:39:20.581Z,78.84
2019-02-22T02:42:09.551Z,78.27
2019-02-22T02:44:41.610Z,77.41
2019-02-22T02:47:15.206Z,80.64
2019-02-22T02:50:03.976Z,78.14
2019-02-22T02:52:36.145Z,79.11
2019-02-22T02:55:42.770Z,83.51
2019-02-22T02:58:19.062Z,78.64
2019-02-22T03:00:50.748Z,84.44
2019-02-22T03:06:42.580Z,82.91
2019-02-22T03:09:14.322Z,81.89
2019-02-22T03:11:51.342Z,81.51
2019-02-22T03:17:47.176Z,82.89
2019-02-22T03:20:36.204Z,79.61
2019-02-22T03:23:48.525Z,81.43
2019-02-22T03:26:21.042Z,81.36
2019-02-22T03:28:56.185Z,81.49
2019-02-22T03:31:30.574Z,82.56
2019-02-22T03:34:02.817Z,79.35
2019-02-22T03:36:34.922Z,80.87
2019-02-22T03:39:07.211Z,81.52
2019-02-22T03:44:45.635Z,80.56
2019-02-22T03:59:00.884Z,83.23
2019-02-22T04:04:58.155Z,77.99
2019-02-22T04:07:46.750Z,76.64
2019-02-22T04:10:18.719Z,76.28
2019-02-22T04:12:52.019Z,78.39
2019-02-22T04:15:24.628Z,79.53
2019-02-22T04:18:16.748Z,80.60
2019-02-22T04:23:51.501Z,80.63
2019-02-22T04:29:25.649Z,79.47
2019-02-22T04:31:59.536Z,78.93
2019-02-22T04:34:37.900Z,80.07
2019-02-22T04:37:10.924Z,80.88
2019-02-22T04:39:46.156Z,78.29
2019-02-22T04:45:20.401Z,80.83
2019-02-22T04:48:07.056Z,80.66
2019-02-22T04:50:58.992Z,80.66
2019-02-22T04:53:32.276Z,78.70
2019-02-22T04:56:12.858Z,79.33
2019-02-22T04:58:46.924Z,78.68
2019-02-22T05:01:21.611Z,76.42
2019-02-22T05:03:53.396Z,77.22
2019-02-22T05:09:29.097Z,75.39
2019-02-22T05:15:11.980Z,77.07
2019-02-22T05:17:41.913Z,75.14
2019-02-22T05:20:13.263Z,75.12
2019-02-22T05:22:46.441Z,73.31
2019-02-22T05:33:46.872Z,72.60
2019-02-22T05:36:15.669Z,72.04
2019-02-22T05:38:49.727Z,71.88
2019-02-22T05:41:19.663Z,72.22
2019-02-22T05:43:54.284Z,72.46
2019-02-22T05:46:34.816Z,74.94
2019-02-22T05:49:14.327Z,71.17
2019-02-22T05:51:57.091Z,72.08
2019-02-22T05:54:27.883Z,72.40
2019-02-22T05:57:03.906Z,72.47
2019-02-22T05:59:41.853Z,72.91
2019-02-22T06:02:19.112Z,72.02
2019-02-22T06:04:52.720Z,72.23
2019-02-22T06:07:24.007Z,71.57
2019-02-22T06:09:53.525Z,71.30
2019-02-22T06:12:34.077Z,71.21
2019-02-22T06:14:55.351Z,72.13
2019-02-22T06:17:26.914Z,72.05
2019-02-22T06:19:59.157Z,71.50
2019-02-22T06:22:29.880Z,71.26
2019-02-22T06:24:59.087Z,70.97
2019-02-22T06:27:28.438Z,70.41
2019-02-22T06:32:59.889Z,68.73
2019-02-22T06:35:29.313Z,68.20
2019-02-22T06:37:58.624Z,68.64
2019-02-22T06:40:27.151Z,67.54
2019-02-22T06:42:56.575Z,67.22
2019-02-22T06:45:25.082Z,65.58
2019-02-22T06:47:53.615Z,65.11
2019-02-22T06:50:33.145Z,64.85
2019-02-22T06:53:11.346Z,65.63
2019-02-22T06:55:40.666Z,66.27
2019-02-22T06:58:11.781Z,67.41
2019-02-22T07:00:59.185Z,66.34
2019-02-22T07:03:46.500Z,66.52
2019-02-22T07:06:15.838Z,65.96
2019-02-22T07:08:44.247Z,65.38
2019-02-22T07:11:26.350Z,63.60
2019-02-22T07:13:54.861Z,64.60
2019-02-22T07:16:24.208Z,64.49
2019-02-22T07:18:53.536Z,69.33
2019-02-22T07:21:22.869Z,63.69
2019-02-22T07:23:52.192Z,72.91
2019-02-22T07:26:21.511Z,62.14
2019-02-22T07:28:50.846Z,62.82
2019-02-22T07:31:20.166Z,72.68
2019-02-22T07:33:49.512Z,62.33
2019-02-22T07:36:18.038Z,66.10
2019-02-22T07:38:47.562Z,68.19
2019-02-22T07:41:16.915Z,63.70
2019-02-22T07:43:46.346Z,61.34
2019-02-22T07:46:15.662Z,61.09
2019-02-22T07:48:45.013Z,69.94
2019-02-22T07:51:14.337Z,65.04
2019-02-22T07:53:43.673Z,65.57
2019-02-22T07:56:12.996Z,67.44
2019-02-22T07:58:42.315Z,60.26
2019-02-22T08:01:11.638Z,59.79
2019-02-22T08:03:40.069Z,64.21
2019-02-22T08:06:08.698Z,58.47
2019-02-22T08:08:38.026Z,58.54
2019-02-22T08:11:07.470Z,61.53
2019-02-22T08:13:36.803Z,58.14
2019-02-22T08:16:06.139Z,58.27
2019-02-22T08:18:35.436Z,56.12
2019-02-22T08:21:04.051Z,54.95
2019-02-22T08:23:33.446Z,55.84
2019-02-22T08:26:02.861Z,55.64
2019-02-22T08:28:32.186Z,55.22
2019-02-22T08:31:00.756Z,54.42
2019-02-22T08:33:29.191Z,56.04
2019-02-22T08:35:58.530Z,55.97
2019-02-22T08:38:27.859Z,54.85
2019-02-22T08:40:57.295Z,54.64
2019-02-22T08:43:31.477Z,55.86
2019-02-22T08:46:15.862Z,53.42
2019-02-22T08:48:45.185Z,52.82
2019-02-22T08:51:14.546Z,52.26
2019-02-22T08:53:42.960Z,51.54
2019-02-22T08:56:12.274Z,53.42
2019-02-22T08:58:40.791Z,50.90
2019-02-22T09:01:10.115Z,50.63
2019-02-22T09:06:21.985Z,51.13
2019-02-22T09:08:51.308Z,52.17
2019-02-22T09:11:20.633Z,51.76
2019-02-22T09:13:49.967Z,51.77
2019-02-22T09:16:19.291Z,51.40
2019-02-22T09:18:48.631Z,51.82
2019-02-22T09:21:17.962Z,51.62
2019-02-22T09:23:47.284Z,51.56
2019-02-22T09:26:16.606Z,50.84
2019-02-22T09:28:45.938Z,51.53
2019-02-22T09:31:15.270Z,51.71
2019-02-22T09:33:44.607Z,51.70
2019-02-22T09:36:13.966Z,51.83
2019-02-22T09:38:43.292Z,51.94
2019-02-22T09:41:12.607Z,51.82
2019-02-22T09:43:41.954Z,52.22
2019-02-22T09:46:11.311Z,51.91
2019-02-22T09:48:39.820Z,51.86
2019-02-22T09:51:09.162Z,52.75
2019-02-22T09:53:38.492Z,51.66
2019-02-22T09:56:06.916Z,52.58
2019-02-22T09:58:35.426Z,52.11
2019-02-22T10:01:04.790Z,52.22
2019-02-22T10:03:34.136Z,52.12
2019-02-22T10:06:03.451Z,51.88
2019-02-22T10:08:32.773Z,53.07
2019-02-22T10:11:02.086Z,52.84
2019-02-22T10:13:31.436Z,53.21
2019-02-22T10:16:00.773Z,52.83
2019-02-22T10:18:30.092Z,53.09
2019-02-22T10:20:58.644Z,53.26
2019-02-22T10:23:27.982Z,53.10
2019-02-22T10:25:57.306Z,52.87
2019-02-22T10:28:26.637Z,52.83
2019-02-22T10:30:55.971Z,53.32
2019-02-22T10:33:35.950Z,52.95
2019-02-22T10:36:14.520Z,52.93
2019-02-22T10:38:43.854Z,53.54
2019-02-22T10:41:13.179Z,53.10
2019-02-22T10:43:41.723Z,53.87
2019-02-22T10:46:10.241Z,53.12
2019-02-22T10:48:38.671Z,52.65
2019-02-22T10:51:25.997Z,52.91
2019-02-22T10:53:54.543Z,53.09
2019-02-22T10:56:23.876Z,53.31
2019-02-22T10:58:53.210Z,54.39
2019-02-22T11:01:21.723Z,54.29
2019-02-22T11:03:51.072Z,53.68
2019-02-22T11:06:19.595Z,53.72
2019-02-22T11:08:48.907Z,53.64
2019-02-22T11:11:18.267Z,53.61
2019-02-22T11:13:46.786Z,54.09
2019-02-22T11:16:15.301Z,56.86
2019-02-22T11:18:43.736Z,55.19
2019-02-22T11:21:12.257Z,55.38
2019-02-22T11:23:41.682Z,54.50
2019-02-22T11:26:11.508Z,54.29
2019-02-22T11:28:40.907Z,54.64
2019-02-22T11:31:10.424Z,54.57
2019-02-22T11:33:40.242Z,55.27
2019-02-22T11:36:09.718Z,55.03
2019-02-22T11:38:39.153Z,55.16
2019-02-22T11:41:08.524Z,54.87
2019-02-22T11:43:37.984Z,56.29
2019-02-22T11:46:06.611Z,55.28
2019-02-22T11:48:36.099Z,54.88
2019-02-22T11:51:04.619Z,54.02
2019-02-22T11:53:33.969Z,54.41
2019-02-22T11:56:03.378Z,54.41
2019-02-22T11:58:32.907Z,55.46
2019-02-22T12:03:45.392Z,53.84
2019-02-22T12:06:14.724Z,54.31
2019-02-22T12:08:43.254Z,54.44
2019-02-22T12:11:12.606Z,54.24
2019-02-22T12:13:41.949Z,54.86
2019-02-22T12:16:11.376Z,54.23
2019-02-22T12:18:40.704Z,54.58
2019-02-22T12:21:10.015Z,54.86
2019-02-22T12:23:39.345Z,54.58
2019-02-22T12:26:08.655Z,54.76
2019-02-22T12:28:37.181Z,54.71
2019-02-22T12:31:06.514Z,56.13
2019-02-22T12:33:36.509Z,55.49
2019-02-22T12:36:05.946Z,55.10
2019-02-22T12:38:35.283Z,55.39
2019-02-22T12:41:04.753Z,56.07
2019-02-22T12:43:34.092Z,55.70
2019-02-22T12:46:03.410Z,55.68
2019-02-22T12:48:32.785Z,56.01
2019-02-22T12:51:02.118Z,56.76
2019-02-22T12:53:31.494Z,57.62
2019-02-22T12:56:00.814Z,56.68
2019-02-22T12:58:30.139Z,56.54
2019-02-22T13:00:58.769Z,57.74
2019-02-22T13:03:27.489Z,56.87
2019-02-22T13:05:56.848Z,57.38
2019-02-22T13:08:26.181Z,57.82
2019-02-22T13:10:55.502Z,57.21
2019-02-22T13:13:24.843Z,59.45
2019-02-22T13:15:54.180Z,59.09
2019-02-22T13:18:23.510Z,58.77
2019-02-22T13:20:53.275Z,59.98
2019-02-22T13:23:21.881Z,58.51
2019-02-22T13:25:51.204Z,58.27
2019-02-22T13:28:19.928Z,59.55
2019-02-22T13:30:49.284Z,57.56
2019-02-22T13:33:18.647Z,57.31
2019-02-22T13:35:47.983Z,57.55
2019-02-22T13:38:17.309Z,57.05
2019-02-22T13:40:45.939Z,57.61
2019-02-22T13:43:15.257Z,57.68
2019-02-22T13:45:43.781Z,58.83
2019-02-22T13:48:13.209Z,58.41
2019-02-22T13:50:42.631Z,57.79
2019-02-22T13:53:11.147Z,59.04
2019-02-22T13:58:36.622Z,58.62
2019-02-22T14:01:06.199Z,58.70
2019-02-22T14:03:35.540Z,58.44
2019-02-22T14:06:05.476Z,58.28
2019-02-22T14:08:34.815Z,59.00
2019-02-22T14:11:03.539Z,58.83
2019-02-22T14:13:32.049Z,59.00
2019-02-22T14:16:01.390Z,59.10
2019-02-22T14:18:30.868Z,59.20
2019-02-22T14:21:00.232Z,59.58
2019-02-22T14:23:29.550Z,59.46
2019-02-22T14:25:58.180Z,59.80
2019-02-22T14:28:27.517Z,60.31
2019-02-22T14:30:56.835Z,60.35
2019-02-22T14:33:25.388Z,60.76
2019-02-22T14:35:54.702Z,61.11
2019-02-22T14:38:24.029Z,61.17
2019-02-22T14:40:53.360Z,61.97
2019-02-22T14:43:22.696Z,61.91
2019-02-22T14:45:53.231Z,63.86
2019-02-22T14:48:41.336Z,62.53
2019-02-22T14:51:10.704Z,63.36
2019-02-22T14:53:39.998Z,63.96
2019-02-22T14:56:08.618Z,64.38
2019-02-22T14:58:37.958Z,65.48
2019-02-22T15:04:10.241Z,65.59
2019-02-22T15:06:40.412Z,66.58
2019-02-22T15:09:09.098Z,66.83
2019-02-22T15:11:38.442Z,67.63
2019-02-22T15:14:07.767Z,68.40
2019-02-22T15:16:55.957Z,69.01
2019-02-22T15:19:25.312Z,69.55
2019-02-22T15:21:54.649Z,69.23
2019-02-22T15:24:23.978Z,69.68
2019-02-22T15:26:54.149Z,69.34
2019-02-22T15:29:42.532Z,69.35
2019-02-22T15:32:11.852Z,68.61
2019-02-22T15:34:41.179Z,68.79
2019-02-22T15:37:09.800Z,68.88
2019-02-22T15:39:38.323Z,69.12
2019-02-22T15:42:07.648Z,70.36
2019-02-22T15:44:37.064Z,69.89
2019-02-22T15:47:11.900Z,70.19
2019-02-22T15:49:56.033Z,71.37
2019-02-22T15:52:25.363Z,70.06
2019-02-22T15:54:54.699Z,69.66
2019-02-22T15:57:25.110Z,70.08
2019-02-22T15:59:54.141Z,70.13
2019-02-22T16:02:23.459Z,70.53
2019-02-22T16:04:56.200Z,70.76
2019-02-22T16:07:25.031Z,70.44
2019-02-22T16:09:54.612Z,71.03
2019-02-22T16:12:23.215Z,71.62
2019-02-22T16:14:52.147Z,71.45
2019-02-22T16:17:21.480Z,71.51
2019-02-22T16:19:51.568Z,71.68
2019-02-22T16:22:39.219Z,72.80
2019-02-22T16:25:19.158Z,73.21
2019-02-22T16:27:57.774Z,74.75
2019-02-22T16:33:24.646Z,75.58
2019-02-22T16:35:53.294Z,75.45
2019-02-22T16:38:21.916Z,76.15
2019-02-22T16:40:51.355Z,78.00
2019-02-22T16:43:20.814Z,78.38
2019-02-22T16:45:50.246Z,79.60
2019-02-22T16:48:19.660Z,80.95
2019-02-22T16:50:49.190Z,81.86
2019-02-22T16:53:18.625Z,82.31
2019-02-22T16:55:48.048Z,83.10
2019-02-22T16:58:17.403Z,83.90
2019-02-22T17:00:46.034Z,84.90
2019-02-22T17:03:15.429Z,85.48
2019-02-22T17:05:44.787Z,86.27
2019-02-22T17:08:14.223Z,87.78
2019-02-22T17:10:43.684Z,87.79
2019-02-22T17:13:13.094Z,89.34
2019-02-22T17:15:42.658Z,90.30
2019-02-22T17:18:12.072Z,90.10
2019-02-22T17:20:40.893Z,90.62
2019-02-22T17:23:10.276Z,93.25
2019-02-22T17:25:39.657Z,94.78
2019-02-22T17:28:09.513Z,97.36
2019-02-22T17:30:38.836Z,100.00
2019-02-22T17:33:07.471Z,100.00
2019-02-22T17:35:36.798Z,100.00
2019-02-22T17:38:06.132Z,100.00
2019-02-22T17:40:35.462Z,100.00
2019-02-22T17:43:04.797Z,100.00
2019-02-22T17:45:34.118Z,100.00
2019-02-22T17:48:03.460Z,100.00
2019-02-22T17:50:32.778Z,100.00
2019-02-22T17:53:01.404Z,100.00
2019-02-22T17:55:30.844Z,100.00
2019-02-22T17:57:59.445Z,100.00
2019-02-22T18:00:28.785Z,100.00
2019-02-22T18:02:57.411Z,100.00
2019-02-22T18:05:26.791Z,100.00
2019-02-22T18:07:56.136Z,100.00
2019-02-22T18:10:25.489Z,100.00
2019-02-22T18:12:54.823Z,100.00
2019-02-22T18:15:24.354Z,100.00
2019-02-22T18:17:53.778Z,100.00
2019-02-22T18:20:23.122Z,100.00
2019-02-22T18:22:54.295Z,100.00
2019-02-22T18:25:22.836Z,100.00
2019-02-22T18:27:52.423Z,100.00
2019-02-22T18:30:21.785Z,100.00
2019-02-22T18:32:50.419Z,100.00
2019-02-22T18:35:19.760Z,100.00
2019-02-22T18:37:49.115Z,100.00
2019-02-22T18:40:18.657Z,100.00
2019-02-22T18:42:48.102Z,100.00
2019-02-22T18:45:17.437Z,100.00
2019-02-22T18:47:46.830Z,100.00
2019-02-22T18:50:16.226Z,100.00
2019-02-22T18:52:45.495Z,100.00
2019-02-22T18:55:14.868Z,100.00
2019-02-22T18:57:44.235Z,100.00
2019-02-22T19:00:14.660Z,100.00
2019-02-22T19:02:43.279Z,100.00
2019-02-22T19:05:12.605Z,100.00
2019-02-22T19:07:41.950Z,100.00
2019-02-22T19:10:11.430Z,100.00
2019-02-22T19:12:41.153Z,100.00
2019-02-22T19:15:11.620Z,100.00
2019-02-22T19:17:40.946Z,100.00
2019-02-22T19:20:12.076Z,100.00
2019-02-22T19:22:40.724Z,100.00
2019-02-22T19:25:10.151Z,100.00
2019-02-22T19:27:38.729Z,100.00
2019-02-22T19:30:11.144Z,100.00
2019-02-22T19:32:39.958Z,100.00
2019-02-22T19:35:08.870Z,100.00
2019-02-22T19:37:38.198Z,100.00
2019-02-22T19:40:10.347Z,100.00
2019-02-22T19:42:38.907Z,100.00
2019-02-22T19:45:10.525Z,100.00
2019-02-22T19:47:42.095Z,100.00
2019-02-22T19:50:11.184Z,100.00
2019-02-22T19:52:40.645Z,100.00
2019-02-22T19:55:11.157Z,100.00
2019-02-22T19:57:40.456Z,100.00
2019-02-22T20:00:12.275Z,100.00
2019-02-22T20:02:40.920Z,100.00
2019-02-22T20:05:10.687Z,100.00
2019-02-22T20:07:39.367Z,100.00
2019-02-22T20:10:17.835Z,100.00
2019-02-22T20:12:40.793Z,100.00
2019-02-22T20:15:11.483Z,100.00
2019-02-22T20:17:40.427Z,100.00
2019-02-22T20:20:11.165Z,100.00
2019-02-22T20:22:39.694Z,100.00
2019-02-22T20:25:09.365Z,100.00
2019-02-22T20:27:38.293Z,100.00
2019-02-22T20:30:09.940Z,100.00
2019-02-22T20:32:38.566Z,100.00
2019-02-22T20:35:10.105Z,100.00
2019-02-22T20:37:39.030Z,100.00
2019-02-22T20:40:27.892Z,100.00
2019-02-22T20:42:57.213Z,100.00
2019-02-22T20:45:46.022Z,100.00
2019-02-22T20:48:15.460Z,100.00
2019-02-22T20:50:44.863Z,100.00
2019-02-22T20:53:14.249Z,100.00
2019-02-22T20:55:43.733Z,100.00
2019-02-22T20:58:12.347Z,100.00
2019-02-22T21:00:40.886Z,100.00
2019-02-22T21:03:09.600Z,100.00
2019-02-22T21:05:38.949Z,100.00
2019-02-22T21:08:08.263Z,100.00
2019-02-22T21:10:37.578Z,100.00
2019-02-22T21:13:06.981Z,100.00
2019-02-22T21:15:36.329Z,100.00
2019-02-22T21:18:15.960Z,100.00
2019-02-22T21:20:54.859Z,100.00
2019-02-22T21:23:24.223Z,100.00
2019-02-22T21:25:53.254Z,100.00
2019-02-22T21:28:22.559Z,100.00
2019-02-22T21:30:51.203Z,100.00
2019-02-22T21:33:20.506Z,100.00
2019-02-22T21:35:49.817Z,100.00
2019-02-22T21:38:19.173Z,100.00
2019-02-22T21:40:48.503Z,100.00
2019-02-22T21:43:17.816Z,100.00
2019-02-22T21:45:47.229Z,100.00
2019-02-22T21:48:26.917Z,100.00
2019-02-22T21:50:46.170Z,100.00
2019-02-22T21:53:15.499Z,100.00
2019-02-22T21:55:44.843Z,100.00
2019-02-22T21:58:14.152Z,100.00
2019-02-22T22:00:43.508Z,100.00
2019-02-22T22:03:12.819Z,100.00
2019-02-22T22:05:42.139Z,100.00
2019-02-22T22:08:11.490Z,100.00
2019-02-22T22:10:40.791Z,100.00
2019-02-22T22:13:10.100Z,100.00
2019-02-22T22:15:39.438Z,100.00
2019-02-22T22:18:08.766Z,100.00
2019-02-22T22:20:37.962Z,100.00
2019-02-22T22:23:26.460Z,100.00
2019-02-22T22:25:55.107Z,100.00
2019-02-22T22:28:24.763Z,100.00
2019-02-22T22:30:54.140Z,100.00
2019-02-22T22:33:24.256Z,100.00
2019-02-22T22:35:53.602Z,100.00
2019-02-22T22:38:22.908Z,100.00
2019-02-22T22:40:51.437Z,100.00
2019-02-22T22:43:20.807Z,100.00
2019-02-22T22:45:49.471Z,100.00
2019-02-22T22:48:18.105Z,100.00
2019-02-22T22:50:46.654Z,100.00
2019-02-22T22:53:15.986Z,100.00
2019-02-22T22:55:45.292Z,100.00
2019-02-22T22:58:15.662Z,100.00
2019-02-22T23:01:08.840Z,100.00
2019-02-22T23:03:38.447Z,100.00
2019-02-22T23:06:09.185Z,100.00
2019-02-22T23:08:37.988Z,100.00
2019-02-22T23:11:08.982Z,100.00
2019-02-22T23:13:38.323Z,100.00
2019-02-22T23:16:08.408Z,100.00
2019-02-22T23:21:22.263Z,100.00
2019-02-22T23:23:51.247Z,100.00
2019-02-22T23:26:20.592Z,100.00
2019-02-22T23:28:50.198Z,100.00
2019-02-22T23:31:19.523Z,100.00
2019-02-22T23:39:13.451Z,100.00
2019-02-22T23:41:41.969Z,100.00
2019-02-22T23:44:10.834Z,100.00
2019-02-22T23:46:40.436Z,100.00
2019-02-22T23:49:13.116Z,100.00
2019-02-22T23:51:59.294Z,100.00
2019-02-22T23:54:28.200Z,100.00
2019-02-22T23:56:57.510Z,100.00
2019-02-22T23:59:26.822Z,100.00
